createdAt,value
2022-11-21T00:00:53.432Z,2.40
2022-11-21T00:03:20.360Z,2.40
2022-11-21T00:05:47.750Z,2.40
2022-11-21T00:08:15.672Z,2.50
2022-11-21T00:10:42.912Z,2.40
2022-11-21T00:13:13.408Z,2.40
2022-11-21T00:15:40.024Z,2.50
2022-11-21T00:18:06.724Z,2.50
2022-11-21T00:20:35.811Z,2.50
2022-11-21T00:23:02.737Z,2.50
2022-11-21T00:25:29.381Z,2.50
2022-11-21T00:27:55.989Z,2.50
2022-11-21T00:30:22.599Z,2.60
2022-11-21T00:32:49.207Z,2.50
2022-11-21T00:35:15.834Z,2.60
2022-11-21T00:37:42.515Z,2.50
2022-11-21T00:40:09.456Z,2.60
2022-11-21T00:42:36.144Z,2.60
2022-11-21T00:45:03.072Z,2.60
2022-11-21T00:47:29.672Z,2.60
2022-11-21T00:49:56.356Z,2.60
2022-11-21T00:52:22.982Z,2.60
2022-11-21T00:54:49.608Z,2.60
2022-11-21T00:57:16.222Z,2.70
2022-11-21T00:59:42.833Z,2.70
2022-11-21T01:02:10.524Z,2.60
2022-11-21T01:04:37.204Z,2.70
2022-11-21T01:07:03.822Z,2.70
2022-11-21T01:09:30.530Z,2.70
2022-11-21T01:11:57.138Z,2.70
2022-11-21T01:14:24.342Z,2.70
2022-11-21T01:16:51.085Z,2.70
2022-11-21T01:19:17.703Z,2.70
2022-11-21T01:21:44.311Z,2.70
2022-11-21T01:24:11.856Z,2.70
2022-11-21T01:26:38.601Z,2.70
2022-11-21T01:29:05.827Z,2.70
2022-11-21T01:31:32.460Z,2.70
2022-11-21T01:33:59.799Z,2.70
2022-11-21T01:36:27.738Z,2.60
2022-11-21T01:38:55.116Z,2.60
2022-11-21T01:41:23.623Z,2.50
2022-11-21T01:43:50.639Z,2.50
2022-11-21T01:46:18.410Z,2.40
2022-11-21T01:48:53.997Z,2.50
2022-11-21T01:51:28.510Z,2.40
2022-11-21T01:54:15.435Z,2.40
2022-11-21T01:56:55.287Z,2.40
2022-11-21T01:59:25.915Z,2.50
2022-11-21T02:01:54.151Z,2.40
2022-11-21T02:04:22.366Z,2.50
2022-11-21T02:06:49.195Z,2.50
2022-11-21T02:09:15.899Z,2.50
2022-11-21T02:11:44.968Z,2.50
2022-11-21T02:14:11.848Z,2.50
2022-11-21T02:16:38.728Z,2.40
2022-11-21T02:19:06.759Z,2.50
2022-11-21T02:21:49.074Z,2.50
2022-11-21T02:24:21.000Z,2.60
2022-11-21T02:26:48.550Z,2.50
2022-11-21T02:29:15.795Z,2.60
2022-11-21T02:31:42.418Z,2.60
2022-11-21T02:34:09.048Z,2.60
2022-11-21T02:36:41.693Z,2.60
2022-11-21T02:39:10.590Z,2.60
2022-11-21T02:41:39.454Z,2.60
2022-11-21T02:44:09.170Z,2.60
2022-11-21T02:46:36.052Z,2.60
2022-11-21T02:49:06.228Z,2.60
2022-11-21T02:51:32.845Z,2.50
2022-11-21T02:53:59.441Z,2.50
2022-11-21T02:56:26.082Z,2.40
2022-11-21T02:58:52.936Z,2.40
2022-11-21T03:01:19.630Z,2.40
2022-11-21T03:03:46.267Z,2.30
2022-11-21T03:06:12.871Z,2.30
2022-11-21T03:08:39.462Z,2.40
2022-11-21T03:11:06.074Z,2.40
2022-11-21T03:13:32.694Z,2.40
2022-11-21T03:15:59.314Z,2.40
2022-11-21T03:18:25.932Z,2.40
2022-11-21T03:20:52.702Z,2.40
2022-11-21T03:23:19.316Z,2.40
2022-11-21T03:25:45.926Z,2.40
2022-11-21T03:28:12.522Z,2.40
2022-11-21T03:30:39.131Z,2.40
2022-11-21T03:33:05.756Z,2.40
2022-11-21T03:35:32.362Z,2.40
2022-11-21T03:37:59.031Z,2.40
2022-11-21T03:40:25.727Z,2.40
2022-11-21T03:42:52.343Z,2.40
2022-11-21T03:45:19.223Z,2.40
2022-11-21T03:47:45.846Z,2.30
2022-11-21T03:50:15.066Z,2.30
2022-11-21T03:52:41.800Z,2.20
2022-11-21T03:55:08.508Z,2.20
2022-11-21T03:57:35.094Z,2.20
2022-11-21T04:00:01.707Z,2.10
2022-11-21T04:02:31.249Z,2.00
2022-11-21T04:04:57.871Z,2.00
2022-11-21T04:07:24.635Z,2.00
2022-11-21T04:09:51.273Z,2.00
2022-11-21T04:12:17.876Z,2.10
2022-11-21T04:14:44.512Z,2.10
2022-11-21T04:17:11.181Z,2.10
2022-11-21T04:19:37.854Z,2.10
2022-11-21T04:22:04.458Z,2.20
2022-11-21T04:24:31.270Z,2.30
2022-11-21T04:26:57.950Z,2.30
2022-11-21T04:29:24.869Z,2.30
2022-11-21T04:31:51.472Z,2.30
2022-11-21T04:34:18.102Z,2.30
2022-11-21T04:36:44.820Z,2.30
2022-11-21T04:39:11.483Z,2.30
2022-11-21T04:41:38.139Z,2.30
2022-11-21T04:44:04.999Z,2.30
2022-11-21T04:46:31.642Z,2.30
2022-11-21T04:48:58.294Z,2.20
2022-11-21T04:51:25.962Z,2.20
2022-11-21T04:53:54.596Z,2.20
2022-11-21T04:56:21.244Z,2.20
2022-11-21T04:58:47.870Z,2.20
2022-11-21T05:01:14.572Z,2.20
2022-11-21T05:03:41.248Z,2.20
2022-11-21T05:06:08.037Z,2.20
2022-11-21T05:08:34.640Z,2.20
2022-11-21T05:11:19.983Z,2.10
2022-11-21T05:13:46.673Z,2.00
2022-11-21T05:16:13.363Z,1.90
2022-11-21T05:18:40.030Z,1.80
2022-11-21T05:21:06.671Z,1.70
2022-11-21T05:23:33.415Z,1.60
2022-11-21T05:26:00.149Z,1.50
2022-11-21T05:28:26.941Z,1.40
2022-11-21T05:30:53.558Z,1.30
2022-11-21T05:33:20.378Z,1.20
2022-11-21T05:35:47.074Z,1.20
2022-11-21T05:38:13.744Z,1.20
2022-11-21T05:40:40.396Z,1.10
2022-11-21T05:43:25.800Z,1.20
2022-11-21T05:45:52.533Z,1.20
2022-11-21T05:48:19.159Z,1.10
2022-11-21T05:50:51.982Z,1.20
2022-11-21T05:53:18.716Z,1.10
2022-11-21T05:55:45.368Z,1.10
2022-11-21T05:58:12.148Z,1.10
2022-11-21T06:00:38.781Z,1.00
2022-11-21T06:03:24.760Z,1.00
2022-11-21T06:05:51.572Z,1.00
2022-11-21T06:08:18.287Z,1.00
2022-11-21T06:10:44.915Z,1.00
2022-11-21T06:13:31.803Z,1.10
2022-11-21T06:16:00.113Z,1.10
2022-11-21T06:18:27.144Z,1.20
2022-11-21T06:20:53.778Z,1.10
2022-11-21T06:23:20.510Z,1.20
2022-11-21T06:25:47.188Z,1.30
2022-11-21T06:28:13.783Z,1.30
2022-11-21T06:30:40.428Z,1.30
2022-11-21T06:33:07.378Z,1.40
2022-11-21T06:35:36.720Z,1.50
2022-11-21T06:38:03.346Z,1.60
2022-11-21T06:40:30.003Z,1.70
2022-11-21T06:42:56.641Z,1.80
2022-11-21T06:45:23.264Z,1.90
2022-11-21T06:47:49.903Z,2.00
2022-11-21T06:50:16.624Z,2.00
2022-11-21T06:52:43.283Z,2.00
2022-11-21T06:55:10.511Z,1.90
2022-11-21T06:57:37.251Z,1.80
2022-11-21T07:00:04.476Z,1.80
2022-11-21T07:02:31.135Z,1.80
2022-11-21T07:04:57.776Z,1.80
2022-11-21T07:07:24.446Z,1.90
2022-11-21T07:09:51.282Z,1.90
2022-11-21T07:12:36.552Z,1.90
2022-11-21T07:15:03.218Z,2.00
2022-11-21T07:17:29.825Z,2.10
2022-11-21T07:19:56.453Z,2.20
2022-11-21T07:22:23.064Z,2.20
2022-11-21T07:24:49.712Z,2.30
2022-11-21T07:27:16.311Z,2.20
2022-11-21T07:29:42.927Z,2.20
2022-11-21T07:32:12.598Z,2.20
2022-11-21T07:34:39.224Z,2.20
2022-11-21T07:37:05.880Z,2.20
2022-11-21T07:39:32.478Z,2.20
2022-11-21T07:41:59.094Z,2.10
2022-11-21T07:44:25.698Z,2.10
2022-11-21T07:46:55.655Z,2.20
2022-11-21T07:49:22.417Z,2.20
2022-11-21T07:51:49.038Z,2.20
2022-11-21T07:54:15.648Z,2.20
2022-11-21T07:56:42.260Z,2.20
2022-11-21T07:59:08.913Z,2.20
2022-11-21T08:01:35.567Z,2.30
2022-11-21T08:04:02.203Z,2.30
2022-11-21T08:06:28.802Z,2.30
2022-11-21T08:08:55.408Z,2.30
2022-11-21T08:11:22.277Z,2.30
2022-11-21T08:13:50.147Z,2.40
2022-11-21T08:16:16.802Z,2.50
2022-11-21T08:18:43.428Z,2.60
2022-11-21T08:21:10.066Z,2.70
2022-11-21T08:23:36.679Z,2.70
2022-11-21T08:26:03.318Z,2.70
2022-11-21T08:28:29.952Z,2.70
2022-11-21T08:30:56.620Z,2.70
2022-11-21T08:33:23.283Z,2.70
2022-11-21T08:35:49.940Z,2.80
2022-11-21T08:38:16.906Z,2.90
2022-11-21T08:40:43.674Z,2.90
2022-11-21T08:43:10.347Z,2.90
2022-11-21T08:45:37.978Z,3.00
2022-11-21T08:48:04.794Z,3.00
2022-11-21T08:50:32.152Z,3.10
2022-11-21T08:53:00.124Z,3.10
2022-11-21T08:55:26.856Z,3.20
2022-11-21T08:57:53.608Z,3.20
2022-11-21T09:00:20.259Z,3.20
2022-11-21T09:02:46.923Z,3.20
2022-11-21T09:05:13.630Z,3.20
2022-11-21T09:07:41.327Z,3.20
2022-11-21T09:10:08.271Z,3.20
2022-11-21T09:12:34.912Z,3.30
2022-11-21T09:15:20.203Z,3.30
2022-11-21T09:18:05.061Z,3.30
2022-11-21T09:20:34.048Z,3.40
2022-11-21T09:23:04.933Z,3.40
2022-11-21T09:25:31.562Z,3.50
2022-11-21T09:28:05.698Z,3.50
2022-11-21T09:30:32.562Z,3.50
2022-11-21T09:33:00.200Z,3.60
2022-11-21T09:35:26.812Z,3.60
2022-11-21T09:37:53.445Z,3.60
2022-11-21T09:40:20.207Z,3.70
2022-11-21T09:42:49.981Z,3.70
2022-11-21T09:45:19.415Z,3.60
2022-11-21T09:47:47.823Z,3.50
2022-11-21T09:50:14.559Z,3.40
2022-11-21T09:52:49.479Z,3.30
2022-11-21T09:55:36.460Z,3.10
2022-11-21T09:58:22.075Z,3.00
2022-11-21T10:00:50.550Z,2.90
2022-11-21T10:03:22.131Z,2.80
2022-11-21T10:05:58.215Z,2.60
2022-11-21T10:08:24.868Z,2.30
2022-11-21T10:11:17.787Z,2.00
2022-11-21T10:13:55.386Z,1.90
2022-11-21T10:16:26.962Z,1.90
2022-11-21T10:19:05.907Z,1.90
2022-11-21T10:21:39.503Z,1.70
2022-11-21T10:24:26.655Z,1.50
2022-11-21T10:26:56.248Z,1.40
2022-11-21T10:29:34.835Z,1.40
2022-11-21T10:32:03.745Z,1.40
2022-11-21T10:34:31.209Z,1.60
2022-11-21T10:37:00.253Z,1.70
2022-11-21T10:39:39.664Z,1.90
2022-11-21T10:42:24.974Z,2.00
2022-11-21T10:45:10.440Z,2.10
2022-11-21T10:47:40.123Z,2.00
2022-11-21T10:50:27.041Z,2.20
2022-11-21T10:53:02.615Z,2.40
2022-11-21T10:55:29.241Z,2.60
2022-11-21T10:57:55.964Z,2.80
2022-11-21T11:00:24.035Z,3.10
2022-11-21T11:02:56.665Z,3.30
2022-11-21T11:05:27.536Z,3.50
2022-11-21T11:08:06.359Z,3.60
2022-11-21T11:10:34.316Z,3.50
2022-11-21T11:16:06.342Z,3.60
2022-11-21T11:18:34.639Z,3.80
2022-11-21T11:21:21.440Z,4.10
2022-11-21T11:23:49.450Z,4.30
2022-11-21T11:26:27.648Z,4.50
2022-11-21T11:29:06.897Z,4.60
2022-11-21T11:31:40.763Z,4.80
2022-11-21T11:34:11.362Z,5.20
2022-11-21T11:36:44.454Z,5.20
2022-11-21T11:39:17.991Z,5.30
2022-11-21T11:42:06.485Z,5.20
2022-11-21T11:44:54.531Z,5.10
2022-11-21T11:47:30.470Z,4.90
2022-11-21T11:50:17.545Z,4.80
2022-11-21T11:52:44.124Z,4.80
2022-11-21T11:55:18.499Z,4.90
2022-11-21T11:57:47.040Z,4.80
2022-11-21T12:00:43.092Z,4.80
2022-11-21T12:03:20.192Z,4.70
2022-11-21T12:05:54.540Z,4.90
2022-11-21T12:08:41.854Z,5.00
2022-11-21T12:11:47.026Z,5.00
2022-11-21T12:14:37.151Z,5.00
2022-11-21T12:17:05.024Z,5.10
2022-11-21T12:19:31.623Z,5.00
2022-11-21T12:21:58.269Z,4.80
2022-11-21T12:24:24.921Z,4.80
2022-11-21T12:26:54.966Z,4.70
2022-11-21T12:29:40.304Z,4.70
2022-11-21T12:32:10.140Z,4.70
2022-11-21T12:34:55.703Z,4.60
2022-11-21T12:37:34.501Z,4.60
2022-11-21T12:40:01.155Z,4.50
2022-11-21T12:42:50.780Z,4.50
2022-11-21T12:45:29.391Z,4.40
2022-11-21T12:48:29.956Z,4.60
2022-11-21T12:51:34.507Z,4.70
2022-11-21T12:54:31.544Z,4.80
2022-11-21T12:57:03.469Z,4.60
2022-11-21T12:59:52.226Z,4.80
2022-11-21T13:02:24.845Z,4.90
2022-11-21T13:04:53.188Z,4.90
2022-11-21T13:07:20.343Z,5.10
2022-11-21T13:09:48.246Z,5.40
2022-11-21T13:12:35.099Z,5.80
2022-11-21T13:15:01.693Z,6.60
2022-11-21T13:17:31.414Z,8.20
2022-11-21T13:20:16.870Z,8.80
2022-11-21T13:22:47.257Z,10.00
2022-11-21T13:25:33.985Z,10.20
2022-11-21T13:28:19.013Z,10.10
2022-11-21T13:30:55.738Z,9.60
2022-11-21T13:33:34.590Z,8.60
2022-11-21T13:36:02.505Z,8.30
2022-11-21T13:38:29.130Z,9.80
2022-11-21T13:41:14.543Z,10.60
2022-11-21T13:43:41.220Z,12.00
2022-11-21T13:46:07.840Z,13.60
2022-11-21T13:48:42.849Z,14.20
2022-11-21T13:51:21.787Z,12.70
2022-11-21T13:53:58.033Z,10.50
2022-11-21T13:56:40.571Z,9.80
2022-11-21T13:59:26.193Z,10.50
2022-11-21T14:02:02.362Z,11.60
2022-11-21T14:04:39.013Z,13.00
2022-11-21T14:07:24.672Z,13.50
2022-11-21T14:09:52.478Z,14.20
2022-11-21T14:12:21.346Z,14.80
2022-11-21T14:14:51.558Z,14.40
2022-11-21T14:17:29.949Z,14.60
2022-11-21T14:19:57.303Z,15.60
2022-11-21T14:22:45.809Z,15.50
2022-11-21T14:25:17.523Z,15.10
2022-11-21T14:27:47.258Z,14.30
2022-11-21T14:30:32.451Z,14.20
2022-11-21T14:33:17.856Z,14.30
2022-11-21T14:35:47.816Z,14.00
2022-11-21T14:38:14.516Z,13.70
2022-11-21T14:40:41.191Z,13.30
2022-11-21T14:43:47.101Z,12.60
2022-11-21T14:46:19.588Z,11.70
2022-11-21T14:48:47.174Z,10.30
2022-11-21T14:51:17.408Z,9.40
2022-11-21T14:53:44.570Z,8.80
2022-11-21T14:56:12.718Z,8.30
2022-11-21T14:58:40.508Z,8.00
2022-11-21T15:01:08.392Z,7.70
2022-11-21T15:03:35.261Z,7.30
2022-11-21T15:06:06.279Z,7.10
2022-11-21T15:11:24.682Z,6.30
2022-11-21T15:16:41.813Z,5.90
2022-11-21T15:19:09.644Z,5.80
2022-11-21T15:21:36.271Z,5.70
2022-11-21T15:24:15.981Z,5.50
2022-11-21T15:26:42.776Z,5.40
2022-11-21T15:29:17.611Z,5.20
2022-11-21T15:31:44.408Z,5.00
2022-11-21T15:37:03.388Z,4.60
2022-11-21T15:39:30.136Z,4.50
2022-11-21T15:42:16.718Z,4.50
2022-11-21T15:45:00.030Z,4.40
2022-11-21T15:47:26.722Z,4.40
2022-11-21T15:49:53.398Z,4.20
2022-11-21T15:52:20.549Z,4.20
2022-11-21T15:54:48.213Z,4.10
2022-11-21T15:57:16.976Z,4.00
2022-11-21T15:59:44.432Z,3.90
2022-11-21T16:02:12.476Z,3.80
2022-11-21T16:04:39.148Z,3.80
2022-11-21T16:07:05.820Z,3.80
2022-11-21T16:09:32.930Z,3.70
2022-11-21T16:11:59.542Z,3.60
2022-11-21T16:14:26.148Z,3.60
2022-11-21T16:16:52.772Z,3.50
2022-11-21T16:19:19.440Z,3.50
2022-11-21T16:21:46.072Z,3.50
2022-11-21T16:24:12.707Z,3.50
2022-11-21T16:26:39.320Z,3.50
2022-11-21T16:29:06.237Z,3.40
2022-11-21T16:31:33.206Z,3.40
2022-11-21T16:34:00.644Z,3.40
2022-11-21T16:36:31.133Z,3.30
2022-11-21T16:39:01.968Z,3.30
2022-11-21T16:41:32.178Z,3.20
2022-11-21T16:43:58.974Z,3.10
2022-11-21T16:46:25.987Z,3.10
2022-11-21T16:49:00.219Z,3.10
2022-11-21T16:51:27.254Z,3.10
2022-11-21T16:53:54.540Z,3.20
2022-11-21T16:56:21.311Z,3.20
2022-11-21T16:58:48.049Z,3.20
2022-11-21T17:01:16.197Z,3.30
2022-11-21T17:03:43.528Z,3.30
2022-11-21T17:06:10.907Z,3.20
2022-11-21T17:08:37.840Z,3.20
2022-11-21T17:11:13.530Z,3.20
2022-11-21T17:13:40.562Z,3.20
2022-11-21T17:16:07.670Z,3.10
2022-11-21T17:18:34.370Z,2.90
2022-11-21T17:21:08.977Z,2.80
2022-11-21T17:23:36.923Z,2.80
2022-11-21T17:26:08.549Z,2.80
2022-11-21T17:28:35.541Z,2.70
2022-11-21T17:31:06.326Z,2.60
2022-11-21T17:33:33.110Z,2.60
2022-11-21T17:36:01.853Z,2.60
2022-11-21T17:38:28.620Z,2.60
2022-11-21T17:40:59.286Z,2.50
2022-11-21T17:43:25.896Z,2.40
2022-11-21T17:45:56.675Z,2.40
2022-11-21T17:48:23.284Z,2.40
2022-11-21T17:50:58.998Z,2.30
2022-11-21T17:53:25.891Z,2.30
2022-11-21T17:56:01.670Z,2.20
2022-11-21T17:58:28.512Z,2.20
2022-11-21T18:00:56.318Z,2.20
2022-11-21T18:03:23.420Z,2.10
2022-11-21T18:05:58.765Z,2.10
2022-11-21T18:08:25.405Z,2.20
2022-11-21T18:10:53.369Z,2.20
2022-11-21T18:13:19.996Z,2.20
2022-11-21T18:15:47.989Z,2.20
2022-11-21T18:18:14.847Z,2.20
2022-11-21T18:20:41.494Z,2.20
2022-11-21T18:23:08.471Z,2.20
2022-11-21T18:25:35.810Z,2.20
2022-11-21T18:28:02.539Z,2.10
2022-11-21T18:30:29.472Z,2.10
2022-11-21T18:32:56.118Z,2.10
2022-11-21T18:35:22.806Z,2.10
2022-11-21T18:37:49.453Z,2.10
2022-11-21T18:40:16.285Z,2.10
2022-11-21T18:42:43.941Z,2.10
2022-11-21T18:45:10.570Z,2.10
2022-11-21T18:47:37.191Z,2.20
2022-11-21T18:50:04.027Z,2.20
2022-11-21T18:52:33.757Z,2.20
2022-11-21T18:55:00.370Z,2.10
2022-11-21T18:57:27.045Z,2.20
2022-11-21T18:59:53.671Z,2.20
2022-11-21T19:02:20.282Z,2.00
2022-11-21T19:04:46.897Z,2.10
2022-11-21T19:07:14.600Z,2.00
2022-11-21T19:09:41.561Z,2.00
2022-11-21T19:12:08.192Z,1.90
2022-11-21T19:14:34.808Z,1.80
2022-11-21T19:17:01.473Z,1.80
2022-11-21T19:19:36.486Z,1.70
2022-11-21T19:22:05.531Z,1.80
2022-11-21T19:24:32.247Z,1.70
2022-11-21T19:26:58.905Z,1.70
2022-11-21T19:29:25.759Z,1.60
2022-11-21T19:31:52.543Z,1.60
2022-11-21T19:34:19.557Z,1.60
2022-11-21T19:36:46.591Z,1.50
2022-11-21T19:39:13.573Z,1.60
2022-11-21T19:41:40.299Z,1.50
2022-11-21T19:44:06.935Z,1.40
2022-11-21T19:46:37.720Z,1.40
2022-11-21T19:49:05.612Z,1.30
2022-11-21T19:51:33.571Z,1.20
2022-11-21T19:54:04.244Z,1.30
2022-11-21T19:56:30.933Z,1.20
2022-11-21T19:58:57.641Z,1.20
2022-11-21T20:01:25.809Z,1.30
2022-11-21T20:03:56.598Z,1.30
2022-11-21T20:06:31.032Z,1.40
2022-11-21T20:09:02.269Z,1.40
2022-11-21T20:11:29.891Z,1.40
2022-11-21T20:13:56.945Z,1.50
2022-11-21T20:16:25.043Z,1.50
2022-11-21T20:18:52.272Z,1.50
2022-11-21T20:21:19.330Z,1.40
2022-11-21T20:23:46.377Z,1.50
2022-11-21T20:26:13.583Z,1.60
2022-11-21T20:28:40.233Z,1.60
2022-11-21T20:31:17.158Z,1.70
2022-11-21T20:33:44.734Z,1.70
2022-11-21T20:36:16.071Z,1.70
2022-11-21T20:38:43.499Z,1.60
2022-11-21T20:41:10.132Z,1.70
2022-11-21T20:44:14.230Z,1.70
2022-11-21T20:46:23.528Z,1.70
2022-11-21T20:48:50.185Z,1.60
2022-11-21T20:54:04.299Z,1.40
2022-11-21T20:56:34.728Z,1.40
2022-11-21T20:59:01.428Z,1.40
2022-11-21T21:01:28.560Z,1.40
2022-11-21T21:03:55.711Z,1.50
2022-11-21T21:06:24.026Z,1.60
2022-11-21T21:08:51.218Z,1.40
2022-11-21T21:11:51.494Z,1.40
2022-11-21T21:14:09.340Z,1.50
2022-11-21T21:16:36.218Z,1.60
2022-11-21T21:19:03.377Z,1.70
2022-11-21T21:21:32.984Z,1.50
2022-11-21T21:24:00.754Z,1.50
2022-11-21T21:26:28.903Z,1.60
2022-11-21T21:28:56.484Z,1.60
2022-11-21T21:31:23.549Z,1.80
2022-11-21T21:33:50.237Z,1.90
2022-11-21T21:36:16.811Z,2.00
2022-11-21T21:38:44.515Z,2.10
2022-11-21T21:41:12.392Z,2.10
2022-11-21T21:43:39.380Z,2.10
2022-11-21T21:46:07.113Z,2.00
2022-11-21T21:48:34.099Z,2.10
2022-11-21T21:51:07.510Z,2.10
2022-11-21T21:53:37.710Z,2.20
2022-11-21T21:56:05.320Z,2.20
2022-11-21T21:58:33.395Z,2.20
2022-11-21T22:01:07.578Z,2.30
2022-11-21T22:03:34.538Z,2.20
2022-11-21T22:06:05.051Z,2.20
2022-11-21T22:08:33.150Z,2.30
2022-11-21T22:11:07.081Z,2.30
2022-11-21T22:13:33.915Z,2.30
2022-11-21T22:16:01.036Z,2.30
2022-11-21T22:18:28.213Z,2.40
2022-11-21T22:20:55.118Z,2.40
2022-11-21T22:23:22.203Z,2.40
2022-11-21T22:25:48.931Z,2.50
2022-11-21T22:28:15.551Z,2.50
2022-11-21T22:30:42.176Z,2.60
2022-11-21T22:33:08.871Z,2.60
2022-11-21T22:35:35.449Z,2.60
2022-11-21T22:38:02.046Z,2.60
2022-11-21T22:40:28.704Z,2.70
2022-11-21T22:42:55.301Z,2.70
2022-11-21T22:45:21.962Z,2.70
2022-11-21T22:47:48.579Z,2.80
2022-11-21T22:50:15.694Z,2.90
2022-11-21T22:52:42.457Z,2.90
2022-11-21T22:55:09.236Z,3.00
2022-11-21T22:57:35.839Z,2.90
2022-11-21T23:00:02.517Z,2.90
2022-11-21T23:02:29.170Z,2.90
2022-11-21T23:04:55.790Z,2.90
2022-11-21T23:07:22.470Z,2.90
2022-11-21T23:09:49.601Z,2.90
2022-11-21T23:12:16.199Z,2.90
2022-11-21T23:14:42.805Z,3.00
2022-11-21T23:17:09.439Z,3.00
2022-11-21T23:19:36.030Z,3.10
2022-11-21T23:22:02.644Z,3.10
2022-11-21T23:24:29.605Z,3.10
2022-11-21T23:26:56.303Z,3.20
2022-11-21T23:29:22.902Z,3.20
2022-11-21T23:31:49.522Z,3.20
2022-11-21T23:34:16.158Z,3.30
2022-11-21T23:36:43.056Z,3.30
2022-11-21T23:39:09.701Z,3.40
2022-11-21T23:41:36.409Z,3.40
2022-11-21T23:44:03.147Z,3.50
2022-11-21T23:46:30.204Z,3.60
2022-11-21T23:48:57.026Z,3.70
2022-11-21T23:51:23.626Z,3.70
2022-11-21T23:53:50.235Z,3.70
2022-11-21T23:56:17.037Z,3.80
2022-11-21T23:58:43.654Z,3.80
